Terminal Aerodrome Forecast
Issued by NWS Lake Charles, LA

Home | Current Version | Previous Version | Text Only | Print | Product List | Glossary On
Versions: 1 2 3 4 5 6 7 8 9 10 11 12 13 14 15 16 17 18
000
FTUS44 KLCH 280522
TAFLCH
TAF
KLCH 280522Z 2806/0106 16013G19KT P6SM VCSH FEW017 BKN030 OVC040
      TEMPO 2806/2809 SCT017 OVC030
     FM280900 16010KT P6SM BKN009
      TEMPO 2809/2813 OVC004
     FM281300 16010KT 5SM BR OVC009
      TEMPO 2815/2818 SCT009 BKN015
     FM281800 18015G22KT P6SM OVC021=

USA.gov is the U.S. government's official web portal to all federal, state and local government web resources and services.